createdAt,value
2019-02-09T00:00:30.159Z,9.67
2019-02-09T00:01:30.210Z,9.68
2019-02-09T00:02:30.264Z,9.50
2019-02-09T00:03:30.320Z,9.49
2019-02-09T00:04:30.373Z,9.55
2019-02-09T00:05:30.429Z,9.38
2019-02-09T00:06:30.480Z,9.35
2019-02-09T00:07:30.535Z,9.35
2019-02-09T00:08:30.589Z,9.27
2019-02-09T00:09:30.646Z,9.30
2019-02-09T00:10:30.695Z,9.34
2019-02-09T00:11:30.751Z,9.34
2019-02-09T00:12:30.804Z,9.37
2019-02-09T00:13:30.859Z,9.40
2019-02-09T00:14:30.918Z,9.49
2019-02-09T00:15:30.966Z,9.50
2019-02-09T00:16:31.023Z,9.53
2019-02-09T00:17:31.076Z,9.48
2019-02-09T00:18:31.127Z,9.37
2019-02-09T00:19:31.182Z,9.31
2019-02-09T00:20:31.237Z,9.37
2019-02-09T00:21:31.291Z,9.35
2019-02-09T00:22:31.345Z,9.42
2019-02-09T00:23:31.399Z,9.42
2019-02-09T00:24:31.453Z,9.35
2019-02-09T00:25:31.507Z,9.27
2019-02-09T00:26:31.560Z,9.26
2019-02-09T00:27:31.613Z,9.26
2019-02-09T00:28:31.684Z,9.30
2019-02-09T00:29:31.723Z,9.16
2019-02-09T00:30:31.775Z,9.12
2019-02-09T00:31:31.832Z,9.08
2019-02-09T00:32:31.882Z,9.10
2019-02-09T00:33:31.937Z,9.13
2019-02-09T00:34:31.990Z,8.94
2019-02-09T00:35:32.043Z,8.83
2019-02-09T00:36:32.096Z,8.83
2019-02-09T00:37:32.152Z,8.80
2019-02-09T00:38:32.205Z,8.80
2019-02-09T00:39:32.257Z,8.89
2019-02-09T00:40:32.349Z,8.73
2019-02-09T00:41:32.365Z,8.76
2019-02-09T00:42:32.417Z,8.78
2019-02-09T00:43:32.470Z,8.71
2019-02-09T00:44:32.525Z,8.68
2019-02-09T00:45:32.579Z,8.75
2019-02-09T00:46:32.631Z,8.75
2019-02-09T00:47:32.683Z,8.67
2019-02-09T00:48:32.738Z,8.57
2019-02-09T00:49:32.790Z,8.54
2019-02-09T00:50:33.291Z,8.50
2019-02-09T00:51:33.382Z,8.49
2019-02-09T00:52:33.326Z,8.50
2019-02-09T00:53:33.003Z,8.58
2019-02-09T00:54:33.055Z,8.52
2019-02-09T00:55:33.144Z,8.50
2019-02-09T00:56:33.162Z,8.46
2019-02-09T00:57:33.215Z,8.47
2019-02-09T00:58:33.268Z,8.40
2019-02-09T00:59:33.322Z,8.36
2019-02-09T01:00:33.374Z,8.31
2019-02-09T01:01:33.425Z,8.29
2019-02-09T01:02:33.478Z,8.34
2019-02-09T01:03:33.531Z,8.37
2019-02-09T01:04:33.585Z,8.39
2019-02-09T01:05:33.638Z,8.27
2019-02-09T01:06:33.940Z,8.34
2019-02-09T01:07:33.742Z,8.24
2019-02-09T01:08:33.796Z,8.21
2019-02-09T01:09:33.859Z,8.27
2019-02-09T01:10:33.903Z,8.03
2019-02-09T01:11:33.955Z,8.02
2019-02-09T01:12:34.007Z,8.07
2019-02-09T01:13:34.063Z,8.06
2019-02-09T01:14:34.112Z,8.17
2019-02-09T01:15:34.164Z,8.13
2019-02-09T01:16:34.218Z,8.28
2019-02-09T01:17:34.271Z,8.27
2019-02-09T01:18:34.322Z,8.37
2019-02-09T01:19:34.374Z,8.25
2019-02-09T01:20:34.428Z,8.29
2019-02-09T01:21:34.482Z,8.22
2019-02-09T01:22:34.532Z,8.20
2019-02-09T01:23:34.586Z,8.25
2019-02-09T01:24:34.645Z,8.13
2019-02-09T01:25:34.691Z,8.27
2019-02-09T01:26:34.743Z,8.34
2019-02-09T01:27:34.796Z,8.37
2019-02-09T01:28:34.849Z,8.34
2019-02-09T01:29:34.912Z,8.37
2019-02-09T01:30:34.955Z,8.32
2019-02-09T01:31:35.008Z,8.34
2019-02-09T01:32:35.059Z,8.21
2019-02-09T01:33:35.113Z,8.22
2019-02-09T01:34:35.164Z,8.13
2019-02-09T01:35:35.217Z,8.20
2019-02-09T01:36:35.271Z,8.27
2019-02-09T01:37:35.324Z,8.18
2019-02-09T01:38:35.376Z,8.14
2019-02-09T01:39:36.043Z,8.21
2019-02-09T01:40:36.142Z,8.25
2019-02-09T01:41:35.534Z,8.20
2019-02-09T01:42:35.586Z,8.20
2019-02-09T01:43:35.640Z,8.24
2019-02-09T01:44:35.693Z,8.20
2019-02-09T01:45:35.745Z,8.27
2019-02-09T01:46:35.798Z,8.21
2019-02-09T01:47:35.851Z,8.34
2019-02-09T01:48:35.904Z,8.34
2019-02-09T01:49:35.956Z,8.40
2019-02-09T01:50:36.010Z,8.34
2019-02-09T01:51:36.063Z,8.39
2019-02-09T01:52:36.114Z,8.39
2019-02-09T01:53:36.167Z,8.43
2019-02-09T01:54:36.221Z,8.52
2019-02-09T01:55:36.273Z,8.52
2019-02-09T01:56:36.328Z,8.61
2019-02-09T01:57:36.379Z,8.64
2019-02-09T01:58:36.431Z,8.70
2019-02-09T01:59:36.484Z,8.73
2019-02-09T02:00:36.868Z,8.73
2019-02-09T02:01:37.124Z,8.75
2019-02-09T02:02:36.645Z,8.76
2019-02-09T02:03:36.698Z,8.71
2019-02-09T02:04:36.750Z,8.89
2019-02-09T02:05:36.804Z,8.83
2019-02-09T02:06:36.855Z,8.85
2019-02-09T02:07:36.910Z,8.71
2019-02-09T02:08:36.964Z,8.82
2019-02-09T02:09:37.048Z,8.93
2019-02-09T02:10:37.067Z,8.75
2019-02-09T02:11:37.122Z,8.79
2019-02-09T02:12:37.174Z,8.85
2019-02-09T02:13:37.228Z,9.06
2019-02-09T02:14:37.279Z,9.04
2019-02-09T02:15:37.334Z,9.04
2019-02-09T02:16:37.387Z,9.15
2019-02-09T02:17:37.440Z,9.22
2019-02-09T02:18:37.492Z,9.30
2019-02-09T02:19:38.240Z,9.27
2019-02-09T02:20:37.601Z,9.32
2019-02-09T02:21:37.652Z,9.32
2019-02-09T02:22:37.705Z,9.37
2019-02-09T02:23:37.759Z,9.38
2019-02-09T02:24:37.812Z,9.38
2019-02-09T02:25:37.867Z,9.38
2019-02-09T02:26:37.919Z,9.40
2019-02-09T02:27:37.973Z,9.42
2019-02-09T02:28:38.054Z,9.37
2019-02-09T02:29:38.079Z,9.42
2019-02-09T02:30:38.135Z,9.52
2019-02-09T02:31:38.191Z,9.50
2019-02-09T02:32:38.240Z,9.53
2019-02-09T02:33:38.682Z,9.53
2019-02-09T02:34:38.749Z,9.53
2019-02-09T02:35:38.805Z,9.45
2019-02-09T02:36:38.822Z,9.58
2019-02-09T02:37:38.506Z,9.62
2019-02-09T02:38:39.145Z,9.65
2019-02-09T02:39:38.642Z,9.63
2019-02-09T02:40:38.666Z,9.62
2019-02-09T02:41:38.724Z,9.59
2019-02-09T02:42:38.775Z,9.65
2019-02-09T02:43:38.826Z,9.67
2019-02-09T02:44:38.881Z,9.71
2019-02-09T02:45:38.935Z,9.71
2019-02-09T02:46:38.995Z,9.74
2019-02-09T02:47:39.040Z,9.67
2019-02-09T02:48:39.095Z,9.71
2019-02-09T02:49:39.151Z,9.78
2019-02-09T02:50:39.202Z,9.89
2019-02-09T02:51:39.262Z,9.85
2019-02-09T02:52:39.308Z,9.96
2019-02-09T02:53:39.401Z,9.96
2019-02-09T02:54:39.415Z,9.92
2019-02-09T02:55:39.468Z,10.04
2019-02-09T02:56:39.531Z,9.92
2019-02-09T02:57:39.579Z,9.92
2019-02-09T02:58:39.636Z,9.88
2019-02-09T02:59:39.684Z,9.81
2019-02-09T03:00:39.738Z,9.77
2019-02-09T03:01:39.798Z,9.56
2019-02-09T03:02:39.845Z,9.52
2019-02-09T03:03:39.911Z,9.38
2019-02-09T03:04:39.953Z,9.24
2019-02-09T03:05:40.008Z,9.32
2019-02-09T03:06:40.059Z,9.27
2019-02-09T03:07:40.113Z,9.17
2019-02-09T03:08:40.168Z,9.08
2019-02-09T03:09:40.222Z,9.03
2019-02-09T03:10:40.274Z,8.98
2019-02-09T03:11:40.328Z,8.94
2019-02-09T03:12:40.382Z,8.94
2019-02-09T03:13:40.433Z,8.96
2019-02-09T03:14:40.487Z,8.88
2019-02-09T03:15:40.540Z,8.91
2019-02-09T03:16:40.595Z,8.76
2019-02-09T03:17:40.647Z,8.71
2019-02-09T03:18:40.712Z,8.60
2019-02-09T03:19:40.754Z,8.71
2019-02-09T03:20:40.806Z,8.68
2019-02-09T03:21:40.862Z,8.71
2019-02-09T03:22:40.913Z,8.75
2019-02-09T03:23:40.965Z,8.71
2019-02-09T03:24:41.020Z,8.79
2019-02-09T03:25:41.075Z,8.79
2019-02-09T03:26:41.136Z,8.78
2019-02-09T03:27:41.178Z,8.78
2019-02-09T03:28:41.231Z,8.83
2019-02-09T03:29:41.301Z,8.89
2019-02-09T03:30:47.679Z,8.86
2019-02-09T03:31:41.392Z,8.88
2019-02-09T03:32:41.446Z,8.96
2019-02-09T03:33:41.499Z,8.94
2019-02-09T03:34:41.551Z,8.96
2019-02-09T03:35:41.605Z,8.91
2019-02-09T03:36:41.658Z,9.08
2019-02-09T03:37:41.712Z,8.96
2019-02-09T03:38:41.762Z,8.94
2019-02-09T03:39:41.820Z,8.94
2019-02-09T03:40:41.873Z,8.94
2019-02-09T03:41:41.923Z,8.93
2019-02-09T03:42:41.975Z,8.94
2019-02-09T03:43:42.029Z,8.98
2019-02-09T03:44:42.084Z,9.04
2019-02-09T03:45:42.135Z,9.03
2019-02-09T03:46:42.188Z,9.04
2019-02-09T03:47:42.241Z,9.17
2019-02-09T03:48:42.295Z,9.03
2019-02-09T03:49:42.348Z,9.01
2019-02-09T03:50:42.404Z,9.13
2019-02-09T03:51:42.459Z,9.08
2019-02-09T03:52:42.510Z,9.06
2019-02-09T03:53:42.561Z,9.01
2019-02-09T03:54:42.614Z,9.06
2019-02-09T03:55:42.668Z,9.15
2019-02-09T03:56:42.722Z,9.04
2019-02-09T03:57:42.783Z,9.16
2019-02-09T03:58:42.833Z,9.17
2019-02-09T03:59:42.879Z,9.04
2019-02-09T04:00:42.933Z,9.01
2019-02-09T04:01:42.988Z,8.98
2019-02-09T04:02:43.042Z,9.06
2019-02-09T04:03:43.093Z,8.97
2019-02-09T04:04:43.147Z,9.01
2019-02-09T04:05:43.199Z,8.98
2019-02-09T04:06:43.254Z,8.98
2019-02-09T04:07:43.319Z,8.96
2019-02-09T04:08:43.360Z,8.94
2019-02-09T04:09:43.414Z,8.96
2019-02-09T04:10:43.466Z,9.00
2019-02-09T04:11:43.518Z,8.98
2019-02-09T04:12:43.573Z,8.82
2019-02-09T04:13:43.626Z,8.76
2019-02-09T04:14:43.677Z,8.88
2019-02-09T04:15:43.732Z,8.71
2019-02-09T04:16:43.784Z,8.49
2019-02-09T04:17:43.840Z,8.49
2019-02-09T04:18:43.891Z,8.60
2019-02-09T04:19:43.945Z,8.63
2019-02-09T04:20:44.002Z,8.60
2019-02-09T04:21:44.054Z,8.54
2019-02-09T04:22:44.104Z,8.60
2019-02-09T04:23:44.157Z,8.70
2019-02-09T04:24:44.210Z,8.75
2019-02-09T04:25:44.265Z,8.68
2019-02-09T04:26:44.317Z,8.79
2019-02-09T04:27:44.371Z,8.49
2019-02-09T04:28:44.422Z,8.40
2019-02-09T04:29:44.494Z,8.34
2019-02-09T04:30:44.530Z,8.21
2019-02-09T04:31:44.583Z,8.10
2019-02-09T04:32:44.636Z,8.29
2019-02-09T04:33:44.695Z,8.31
2019-02-09T04:34:44.744Z,8.43
2019-02-09T04:35:44.795Z,8.47
2019-02-09T04:36:44.848Z,8.54
2019-02-09T04:37:44.907Z,8.37
2019-02-09T04:38:44.953Z,8.29
2019-02-09T04:39:45.008Z,8.37
2019-02-09T04:40:45.062Z,8.34
2019-02-09T04:41:45.115Z,8.47
2019-02-09T04:42:45.165Z,8.60
2019-02-09T04:43:45.219Z,8.71
2019-02-09T04:44:45.275Z,8.73
2019-02-09T04:45:45.327Z,8.73
2019-02-09T04:46:45.380Z,8.67
2019-02-09T04:47:45.432Z,8.67
2019-02-09T04:48:45.496Z,8.60
2019-02-09T04:49:45.539Z,8.73
2019-02-09T04:50:45.594Z,8.79
2019-02-09T04:51:45.645Z,8.71
2019-02-09T04:52:45.699Z,8.78
2019-02-09T04:53:45.751Z,8.88
2019-02-09T04:54:45.803Z,8.93
2019-02-09T04:55:45.858Z,8.85
2019-02-09T04:56:45.912Z,8.78
2019-02-09T04:57:46.476Z,8.79
2019-02-09T04:58:46.017Z,8.76
2019-02-09T04:59:46.069Z,8.79
2019-02-09T05:00:46.123Z,8.82
2019-02-09T05:01:46.181Z,8.71
2019-02-09T05:02:46.227Z,8.75
2019-02-09T05:03:46.282Z,8.73
2019-02-09T05:04:46.335Z,8.73
2019-02-09T05:05:46.392Z,8.65
2019-02-09T05:06:46.441Z,8.71
2019-02-09T05:07:46.495Z,8.71
2019-02-09T05:08:46.547Z,8.55
2019-02-09T05:09:46.602Z,8.50
2019-02-09T05:10:46.653Z,8.55
2019-02-09T05:11:46.707Z,8.54
2019-02-09T05:12:46.759Z,8.55
2019-02-09T05:13:46.814Z,8.52
2019-02-09T05:14:46.892Z,8.58
2019-02-09T05:15:46.919Z,8.60
2019-02-09T05:16:46.973Z,8.61
2019-02-09T05:17:47.028Z,8.57
2019-02-09T05:18:47.080Z,8.63
2019-02-09T05:19:47.133Z,8.46
2019-02-09T05:20:47.185Z,8.34
2019-02-09T05:21:47.237Z,8.40
2019-02-09T05:22:47.292Z,8.47
2019-02-09T05:23:47.347Z,8.50
2019-02-09T05:24:47.397Z,8.49
2019-02-09T05:25:47.453Z,8.52
2019-02-09T05:26:47.504Z,8.57
2019-02-09T05:27:47.560Z,8.61
2019-02-09T05:28:47.618Z,8.55
2019-02-09T05:29:47.663Z,8.50
2019-02-09T05:30:47.717Z,8.52
2019-02-09T05:31:47.772Z,8.54
2019-02-09T05:32:47.830Z,8.52
2019-02-09T05:33:47.878Z,8.52
2019-02-09T05:34:47.928Z,8.60
2019-02-09T05:35:47.980Z,8.54
2019-02-09T05:36:48.035Z,8.65
2019-02-09T05:37:48.089Z,8.70
2019-02-09T05:38:48.140Z,8.58
2019-02-09T05:39:48.193Z,8.52
2019-02-09T05:40:48.246Z,8.47
2019-02-09T05:41:48.304Z,8.46
2019-02-09T05:42:48.352Z,8.42
2019-02-09T05:43:48.404Z,8.37
2019-02-09T05:44:48.465Z,8.37
2019-02-09T05:45:48.512Z,8.43
2019-02-09T05:46:48.563Z,8.43
2019-02-09T05:47:48.617Z,8.54
2019-02-09T05:48:48.669Z,8.40
2019-02-09T05:49:48.722Z,8.43
2019-02-09T05:50:48.777Z,8.42
2019-02-09T05:51:48.831Z,8.37
2019-02-09T05:52:48.881Z,8.43
2019-02-09T05:53:48.936Z,8.34
2019-02-09T05:54:48.987Z,8.32
2019-02-09T05:55:49.039Z,8.39
2019-02-09T05:56:49.094Z,8.28
2019-02-09T05:57:49.163Z,8.29
2019-02-09T05:58:49.198Z,8.39
2019-02-09T05:59:49.256Z,8.42
2019-02-09T06:00:49.306Z,8.37
2019-02-09T06:01:49.360Z,8.40
2019-02-09T06:02:49.410Z,8.31
2019-02-09T06:03:49.462Z,8.29
2019-02-09T06:04:49.521Z,8.29
2019-02-09T06:05:49.569Z,8.25
2019-02-09T06:06:49.622Z,8.21
2019-02-09T06:07:49.676Z,8.07
2019-02-09T06:08:49.727Z,8.04
2019-02-09T06:09:49.781Z,8.13
2019-02-09T06:10:49.832Z,8.13
2019-02-09T06:11:49.886Z,8.06
2019-02-09T06:12:49.938Z,8.06
2019-02-09T06:13:50.001Z,8.17
2019-02-09T06:14:50.045Z,8.20
2019-02-09T06:15:50.097Z,8.10
2019-02-09T06:16:50.151Z,8.14
2019-02-09T06:17:50.213Z,8.13
2019-02-09T06:18:50.255Z,8.22
2019-02-09T06:19:50.308Z,8.34
2019-02-09T06:20:50.364Z,8.29
2019-02-09T06:21:50.414Z,8.32
2019-02-09T06:22:50.466Z,8.37
2019-02-09T06:23:50.830Z,8.39
2019-02-09T06:24:50.574Z,8.36
2019-02-09T06:25:50.627Z,8.29
2019-02-09T06:26:50.678Z,8.28
2019-02-09T06:27:50.731Z,8.27
2019-02-09T06:28:50.784Z,8.37
2019-02-09T06:29:50.839Z,8.31
2019-02-09T06:30:50.890Z,8.28
2019-02-09T06:31:51.932Z,8.25
2019-02-09T06:32:50.997Z,8.27
2019-02-09T06:33:51.053Z,8.32
2019-02-09T06:34:51.100Z,8.32
2019-02-09T06:35:51.167Z,8.31
2019-02-09T06:36:51.212Z,8.32
2019-02-09T06:37:51.260Z,8.29
2019-02-09T06:38:51.312Z,8.22
2019-02-09T06:39:51.367Z,8.18
2019-02-09T06:40:51.463Z,8.20
2019-02-09T06:41:51.472Z,8.17
2019-02-09T06:42:51.523Z,8.13
2019-02-09T06:43:51.578Z,8.13
2019-02-09T06:44:51.630Z,8.18
2019-02-09T06:45:52.057Z,8.21
2019-02-09T06:46:51.735Z,8.27
2019-02-09T06:47:51.788Z,8.20
2019-02-09T06:48:51.841Z,8.28
2019-02-09T06:49:51.895Z,8.31
2019-02-09T06:50:51.948Z,8.20
2019-02-09T06:51:52.000Z,8.06
2019-02-09T06:52:52.053Z,8.22
2019-02-09T06:53:52.106Z,8.40
2019-02-09T06:54:52.159Z,8.39
2019-02-09T06:55:52.211Z,8.34
2019-02-09T06:56:52.264Z,8.24
2019-02-09T06:57:52.318Z,8.12
2019-02-09T06:58:52.369Z,8.17
2019-02-09T06:59:52.422Z,8.13
2019-02-09T07:00:53.102Z,8.17
2019-02-09T07:01:52.531Z,8.13
2019-02-09T07:02:54.453Z,8.31
2019-02-09T07:03:52.636Z,8.25
2019-02-09T07:04:52.689Z,8.32
2019-02-09T07:05:52.740Z,8.37
2019-02-09T07:06:52.793Z,8.36
2019-02-09T07:07:52.849Z,8.54
2019-02-09T07:08:52.900Z,8.50
2019-02-09T07:09:52.953Z,8.47
2019-02-09T07:10:53.004Z,8.43
2019-02-09T07:11:53.058Z,8.54
2019-02-09T07:12:53.115Z,8.36
2019-02-09T07:13:53.164Z,8.45
2019-02-09T07:14:53.216Z,8.32
2019-02-09T07:15:53.268Z,8.28
2019-02-09T07:16:53.323Z,8.34
2019-02-09T07:17:53.379Z,8.36
2019-02-09T07:18:53.428Z,8.28
2019-02-09T07:19:53.480Z,8.36
2019-02-09T07:20:53.535Z,8.37
2019-02-09T07:21:53.587Z,8.36
2019-02-09T07:22:53.639Z,8.32
2019-02-09T07:23:53.693Z,8.22
2019-02-09T07:24:55.080Z,8.21
2019-02-09T07:25:53.799Z,8.18
2019-02-09T07:26:53.852Z,8.22
2019-02-09T07:27:53.906Z,8.25
2019-02-09T07:28:53.959Z,8.25
2019-02-09T07:29:54.013Z,8.29
2019-02-09T07:30:54.062Z,8.22
2019-02-09T07:31:56.481Z,8.04
2019-02-09T07:32:54.170Z,8.12
2019-02-09T07:33:54.222Z,8.12
2019-02-09T07:34:54.275Z,8.17
2019-02-09T07:35:54.329Z,8.18
2019-02-09T07:36:54.382Z,8.12
2019-02-09T07:37:54.442Z,8.20
2019-02-09T07:38:54.487Z,8.13
2019-02-09T07:39:54.540Z,8.20
2019-02-09T07:40:54.594Z,8.18
2019-02-09T07:41:54.647Z,8.29
2019-02-09T07:42:54.700Z,8.37
2019-02-09T07:43:54.752Z,8.36
2019-02-09T07:44:54.805Z,8.21
2019-02-09T07:45:54.859Z,8.21
2019-02-09T07:46:54.912Z,8.34
2019-02-09T07:47:54.963Z,8.29
2019-02-09T07:48:55.017Z,8.39
2019-02-09T07:49:55.071Z,8.54
2019-02-09T07:50:55.123Z,8.55
2019-02-09T07:51:55.176Z,8.50
2019-02-09T07:52:55.229Z,8.52
2019-02-09T07:53:55.282Z,8.54
2019-02-09T07:54:55.335Z,8.67
2019-02-09T07:55:55.387Z,8.64
2019-02-09T07:56:55.441Z,8.70
2019-02-09T07:57:55.496Z,8.93
2019-02-09T07:58:55.547Z,8.96
2019-02-09T07:59:55.601Z,8.94
2019-02-09T08:00:55.654Z,8.98
2019-02-09T08:01:55.707Z,8.97
2019-02-09T08:02:55.799Z,9.01
2019-02-09T08:03:55.814Z,9.00
2019-02-09T08:04:55.866Z,9.00
2019-02-09T08:05:55.920Z,8.98
2019-02-09T08:06:55.972Z,8.97
2019-02-09T08:07:56.033Z,8.93
2019-02-09T08:08:56.081Z,8.93
2019-02-09T08:09:56.134Z,9.04
2019-02-09T08:10:56.186Z,8.94
2019-02-09T08:11:56.239Z,9.12
2019-02-09T08:12:56.293Z,9.12
2019-02-09T08:13:56.350Z,8.96
2019-02-09T08:14:56.399Z,9.08
2019-02-09T08:15:56.453Z,9.04
2019-02-09T08:16:56.507Z,9.04
2019-02-09T08:17:56.560Z,9.10
2019-02-09T08:18:56.614Z,9.17
2019-02-09T08:19:56.687Z,9.12
2019-02-09T08:20:56.721Z,9.24
2019-02-09T08:21:56.793Z,9.19
2019-02-09T08:22:56.828Z,9.17
2019-02-09T08:23:56.881Z,9.17
2019-02-09T08:24:56.935Z,9.30
2019-02-09T08:25:56.992Z,9.30
2019-02-09T08:26:57.043Z,9.27
2019-02-09T08:27:57.128Z,9.27
2019-02-09T08:28:57.150Z,9.40
2019-02-09T08:29:57.204Z,9.41
2019-02-09T08:30:57.781Z,9.38
2019-02-09T08:31:57.311Z,9.37
2019-02-09T08:32:57.365Z,9.49
2019-02-09T08:33:57.422Z,9.48
2019-02-09T08:34:57.472Z,9.41
2019-02-09T08:35:57.527Z,9.42
2019-02-09T08:36:57.580Z,9.45
2019-02-09T08:37:57.635Z,9.53
2019-02-09T08:38:57.688Z,9.50
2019-02-09T08:39:57.743Z,9.55
2019-02-09T08:40:57.795Z,9.59
2019-02-09T08:41:57.858Z,9.59
2019-02-09T08:42:57.904Z,9.55
2019-02-09T08:43:57.960Z,9.34
2019-02-09T08:44:58.013Z,9.34
2019-02-09T08:45:58.070Z,9.38
2019-02-09T08:46:58.121Z,9.37
2019-02-09T08:47:58.175Z,9.40
2019-02-09T08:48:58.231Z,9.38
2019-02-09T08:49:58.285Z,9.53
2019-02-09T08:50:58.338Z,9.55
2019-02-09T08:51:58.394Z,9.50
2019-02-09T08:52:58.448Z,9.59
2019-02-09T08:53:58.507Z,9.53
2019-02-09T08:54:58.555Z,9.55
2019-02-09T08:55:58.611Z,9.70
2019-02-09T08:56:58.664Z,9.68
2019-02-09T08:57:58.720Z,9.63
2019-02-09T08:58:58.786Z,9.68
2019-02-09T08:59:58.828Z,9.62
2019-02-09T09:00:58.884Z,9.73
2019-02-09T09:01:58.942Z,9.80
2019-02-09T09:02:58.993Z,9.67
2019-02-09T09:03:59.046Z,9.75
2019-02-09T09:04:59.103Z,9.70
2019-02-09T09:05:59.156Z,9.70
2019-02-09T09:06:59.210Z,9.65
2019-02-09T09:07:59.298Z,9.71
2019-02-09T09:08:59.318Z,9.73
2019-02-09T09:09:59.371Z,9.74
2019-02-09T09:10:59.426Z,9.70
2019-02-09T09:11:59.481Z,9.71
2019-02-09T09:12:59.535Z,9.70
2019-02-09T09:13:59.590Z,9.52
2019-02-09T09:14:59.646Z,9.55
2019-02-09T09:15:59.698Z,9.35
2019-02-09T09:16:59.754Z,9.32
2019-02-09T09:17:59.807Z,9.26
2019-02-09T09:18:59.861Z,9.20
2019-02-09T09:19:59.915Z,9.30
2019-02-09T09:20:59.970Z,9.16
2019-02-09T09:22:00.026Z,9.26
2019-02-09T09:23:00.079Z,9.27
2019-02-09T09:24:00.132Z,9.31
2019-02-09T09:25:00.193Z,9.30
2019-02-09T09:26:00.241Z,9.26
2019-02-09T09:27:00.299Z,9.30
2019-02-09T09:28:00.349Z,9.26
2019-02-09T09:29:00.402Z,9.37
2019-02-09T09:30:00.458Z,9.32
2019-02-09T09:31:00.512Z,9.32
2019-02-09T09:32:00.566Z,9.37
2019-02-09T09:33:00.628Z,9.49
2019-02-09T09:34:00.678Z,9.55
2019-02-09T09:35:00.734Z,9.71
2019-02-09T09:36:00.782Z,9.71
2019-02-09T09:37:00.837Z,9.70
2019-02-09T09:38:01.719Z,9.81
2019-02-09T09:39:02.165Z,9.86
2019-02-09T09:40:01.679Z,9.95
2019-02-09T09:41:01.055Z,10.01
2019-02-09T09:42:01.115Z,10.06
2019-02-09T09:43:01.164Z,10.10
2019-02-09T09:44:01.219Z,10.14
2019-02-09T09:45:01.286Z,10.20
2019-02-09T09:46:01.331Z,10.26
2019-02-09T09:47:01.383Z,10.38
2019-02-09T09:48:01.440Z,10.43
2019-02-09T09:49:01.512Z,10.44
2019-02-09T09:50:01.550Z,10.51
2019-02-09T09:51:01.604Z,10.54
2019-02-09T09:52:01.660Z,10.54
2019-02-09T09:53:01.716Z,10.63
2019-02-09T09:54:01.771Z,10.60
2019-02-09T09:55:01.825Z,10.60
2019-02-09T09:56:01.879Z,10.49
2019-02-09T09:57:01.934Z,10.46
2019-02-09T09:58:01.991Z,10.49
2019-02-09T09:59:02.045Z,10.46
2019-02-09T10:00:02.101Z,10.55
2019-02-09T10:01:02.156Z,10.54
2019-02-09T10:02:02.213Z,10.63
2019-02-09T10:03:02.267Z,10.66
2019-02-09T10:04:02.322Z,10.62
2019-02-09T10:05:02.380Z,10.63
2019-02-09T10:06:02.434Z,10.55
2019-02-09T10:07:02.489Z,10.44
2019-02-09T10:08:02.544Z,10.46
2019-02-09T10:09:02.598Z,10.49
2019-02-09T10:10:02.655Z,10.42
2019-02-09T10:11:02.709Z,10.44
2019-02-09T10:12:02.765Z,10.36
2019-02-09T10:13:02.821Z,10.35
2019-02-09T10:14:08.683Z,10.38
2019-02-09T10:15:02.931Z,10.31
2019-02-09T10:16:03.586Z,10.42
2019-02-09T10:17:03.040Z,10.38
2019-02-09T10:18:03.096Z,10.42
2019-02-09T10:19:03.151Z,10.46
2019-02-09T10:20:03.206Z,10.54
2019-02-09T10:21:03.262Z,10.60
2019-02-09T10:22:03.320Z,10.60
2019-02-09T10:23:03.372Z,10.70
2019-02-09T10:24:03.427Z,10.58
2019-02-09T10:25:03.482Z,10.76
2019-02-09T10:26:03.537Z,10.70
2019-02-09T10:27:03.593Z,10.69
2019-02-09T10:28:03.649Z,10.73
2019-02-09T10:29:03.704Z,10.81
2019-02-09T10:30:03.761Z,10.86
2019-02-09T10:31:03.814Z,10.91
2019-02-09T10:32:03.872Z,10.90
2019-02-09T10:33:03.926Z,10.93
2019-02-09T10:34:03.982Z,10.83
2019-02-09T10:35:04.037Z,10.95
2019-02-09T10:36:04.092Z,10.94
2019-02-09T10:37:04.149Z,11.03
2019-02-09T10:38:04.212Z,11.06
2019-02-09T10:39:04.260Z,10.95
2019-02-09T10:40:04.316Z,11.02
2019-02-09T10:41:04.371Z,11.06
2019-02-09T10:42:04.427Z,11.06
2019-02-09T10:43:04.483Z,10.99
2019-02-09T10:44:04.539Z,11.03
2019-02-09T10:45:04.596Z,11.12
2019-02-09T10:46:04.651Z,11.11
2019-02-09T10:47:04.705Z,11.03
2019-02-09T10:48:04.765Z,11.06
2019-02-09T10:49:04.818Z,11.23
2019-02-09T10:50:04.875Z,11.20
2019-02-09T10:51:04.930Z,11.16
2019-02-09T10:52:04.987Z,11.27
2019-02-09T10:53:05.053Z,11.12
2019-02-09T10:54:05.097Z,11.28
2019-02-09T10:55:05.154Z,11.27
2019-02-09T10:56:05.210Z,11.33
2019-02-09T10:57:05.268Z,11.42
2019-02-09T10:58:05.330Z,11.41
2019-02-09T10:59:05.380Z,11.41
2019-02-09T11:00:05.434Z,11.33
2019-02-09T11:01:05.494Z,11.48
2019-02-09T11:02:05.548Z,11.48
2019-02-09T11:03:05.611Z,11.39
2019-02-09T11:04:05.659Z,11.53
2019-02-09T11:05:05.716Z,11.54
2019-02-09T11:06:05.772Z,11.48
2019-02-09T11:07:05.827Z,11.54
2019-02-09T11:08:06.391Z,11.57
2019-02-09T11:09:05.940Z,11.56
2019-02-09T11:10:05.998Z,11.53
2019-02-09T11:11:06.054Z,11.57
2019-02-09T11:12:06.109Z,11.57
2019-02-09T11:13:06.167Z,11.67
2019-02-09T11:14:06.223Z,11.69
2019-02-09T11:15:06.283Z,11.46
2019-02-09T11:16:06.339Z,11.45
2019-02-09T11:17:06.394Z,11.44
2019-02-09T11:18:06.450Z,11.46
2019-02-09T11:19:06.509Z,11.59
2019-02-09T11:20:06.563Z,11.69
2019-02-09T11:21:06.619Z,11.63
2019-02-09T11:22:06.677Z,11.48
2019-02-09T11:23:06.743Z,11.51
2019-02-09T11:24:06.789Z,11.62
2019-02-09T11:25:06.846Z,11.57
2019-02-09T11:26:06.914Z,11.53
2019-02-09T11:27:06.959Z,11.36
2019-02-09T11:28:07.031Z,11.12
2019-02-09T11:29:07.071Z,10.98
2019-02-09T11:30:07.146Z,10.90
2019-02-09T11:31:07.185Z,10.72
2019-02-09T11:32:07.239Z,10.63
2019-02-09T11:33:07.297Z,10.43
2019-02-09T11:34:07.356Z,10.20
2019-02-09T11:35:07.408Z,10.04
2019-02-09T11:36:07.465Z,10.02
2019-02-09T11:37:07.520Z,10.06
2019-02-09T11:38:07.578Z,10.06
2019-02-09T11:39:07.633Z,9.99
2019-02-09T11:40:07.687Z,10.16
2019-02-09T11:41:07.743Z,10.29
2019-02-09T11:42:07.801Z,10.28
2019-02-09T11:43:07.856Z,10.31
2019-02-09T11:44:07.953Z,10.52
2019-02-09T11:45:07.967Z,10.81
2019-02-09T11:46:08.023Z,10.70
2019-02-09T11:47:08.077Z,10.84
2019-02-09T11:48:08.133Z,10.91
2019-02-09T11:49:08.190Z,11.28
2019-02-09T11:50:08.245Z,11.26
2019-02-09T11:51:08.950Z,11.13
2019-02-09T11:52:08.359Z,11.24
2019-02-09T11:53:08.412Z,11.42
2019-02-09T11:54:08.469Z,11.51
2019-02-09T11:55:08.524Z,11.66
2019-02-09T11:56:08.579Z,12.23
2019-02-09T11:57:08.637Z,12.54
2019-02-09T11:58:08.693Z,12.56
2019-02-09T11:59:08.749Z,12.36
2019-02-09T12:00:08.806Z,12.66
2019-02-09T12:01:08.861Z,12.46
2019-02-09T12:02:08.918Z,12.23
2019-02-09T12:03:14.937Z,12.03
2019-02-09T12:04:09.029Z,11.93
2019-02-09T12:05:09.088Z,12.05
2019-02-09T12:06:09.143Z,12.05
2019-02-09T12:07:09.200Z,12.00
2019-02-09T12:08:09.256Z,12.07
2019-02-09T12:09:09.317Z,12.04
2019-02-09T12:10:09.370Z,12.05
2019-02-09T12:11:09.427Z,11.90
2019-02-09T12:12:09.482Z,11.90
2019-02-09T12:13:09.546Z,11.90
2019-02-09T12:14:09.598Z,11.93
2019-02-09T12:15:09.653Z,11.93
2019-02-09T12:16:09.710Z,11.77
2019-02-09T12:17:09.784Z,11.81
2019-02-09T12:18:09.825Z,11.79
2019-02-09T12:19:09.880Z,11.74
2019-02-09T12:20:09.969Z,11.63
2019-02-09T12:21:09.994Z,11.57
2019-02-09T12:22:10.049Z,11.30
2019-02-09T12:23:10.106Z,11.12
2019-02-09T12:24:10.162Z,10.98
2019-02-09T12:25:10.218Z,10.91
2019-02-09T12:26:10.275Z,11.51
2019-02-09T12:27:10.331Z,11.41
2019-02-09T12:28:10.388Z,11.20
2019-02-09T12:29:10.443Z,11.19
2019-02-09T12:30:10.499Z,11.13
2019-02-09T12:31:10.555Z,11.24
2019-02-09T12:32:10.612Z,11.16
2019-02-09T12:33:10.668Z,11.26
2019-02-09T12:34:10.723Z,11.28
2019-02-09T12:35:10.778Z,11.28
2019-02-09T12:36:10.834Z,11.31
2019-02-09T12:37:10.892Z,11.30
2019-02-09T12:38:10.946Z,11.28
2019-02-09T12:39:11.050Z,11.16
2019-02-09T12:40:11.058Z,11.27
2019-02-09T12:41:11.114Z,11.28
2019-02-09T12:42:11.476Z,11.39
2019-02-09T12:43:11.226Z,11.48
2019-02-09T12:44:11.280Z,11.46
2019-02-09T12:45:11.337Z,11.44
2019-02-09T12:46:11.393Z,11.46
2019-02-09T12:47:11.448Z,12.11
2019-02-09T12:48:11.505Z,12.13
2019-02-09T12:49:11.561Z,12.44
2019-02-09T12:50:11.616Z,12.87
2019-02-09T12:51:11.671Z,13.01
2019-02-09T12:52:11.727Z,12.89
2019-02-09T12:53:11.782Z,13.13
2019-02-09T12:54:11.839Z,12.74
2019-02-09T12:55:11.895Z,12.59
2019-02-09T12:56:11.952Z,12.71
2019-02-09T12:57:12.008Z,12.43
2019-02-09T12:58:12.079Z,12.62
2019-02-09T12:59:15.123Z,12.62
2019-02-09T13:00:12.177Z,12.22
2019-02-09T13:01:12.233Z,12.00
2019-02-09T13:02:12.289Z,11.96
2019-02-09T13:03:12.345Z,11.88
2019-02-09T13:04:12.403Z,11.84
2019-02-09T13:05:12.459Z,11.90
2019-02-09T13:06:12.515Z,11.85
2019-02-09T13:07:12.572Z,12.01
2019-02-09T13:08:12.628Z,11.88
2019-02-09T13:09:12.685Z,11.87
2019-02-09T13:10:12.742Z,12.00
2019-02-09T13:11:12.797Z,12.08
2019-02-09T13:12:12.855Z,12.07